Time;durP1;ratioP1;P1;durP2;ratioP2;P2;SDS_P1;SDS_P2;PMS_P1;PMS_P2;Temp;Humidity;BMP_temperature;BMP_pressure;BME280_temperature;BME280_humidity;BME280_pressure;Samples;Min_cycle;Max_cycle;Signal;HPM_P1;HPM_P2
2022/07/08 00:02:42;;;;;;;0.40;0.40;;;16.50;99.90;16.90;102939.00;;;;5023075;28;20301;-66
2022/07/08 00:05:21;;;;;;;0.30;0.30;;;16.30;99.90;17.00;102934.00;;;;5037634;28;20181;-66
2022/07/08 00:08:06;;;;;;;0.30;0.30;;;16.20;99.90;17.10;102928.00;;;;5054694;28;20544;-66
2022/07/08 00:10:52;;;;;;;0.30;0.30;;;16.20;99.90;17.00;102935.00;;;;5037633;28;20642;-66
2022/07/08 00:13:36;;;;;;;0.30;0.30;;;16.20;99.90;17.10;102906.00;;;;5037879;28;20240;-66
2022/07/08 00:16:30;;;;;;;0.30;0.30;;;16.30;99.90;16.70;102931.00;;;;5037828;28;20228;-66
2022/07/08 00:19:19;;;;;;;0.30;0.30;;;16.20;99.90;16.60;102922.00;;;;5037776;28;20246;-66
2022/07/08 00:22:03;;;;;;;0.30;0.30;;;16.00;99.90;16.80;102933.00;;;;5054440;28;20186;-66
2022/07/08 00:24:53;;;;;;;0.30;0.30;;;16.00;99.90;16.70;102919.00;;;;5037670;28;20241;-66
2022/07/08 00:27:51;;;;;;;0.30;0.30;;;16.00;99.90;16.30;102919.00;;;;5023337;28;20277;-66
2022/07/08 00:30:37;;;;;;;0.30;0.30;;;15.80;99.90;16.00;102921.00;;;;5033347;28;20665;-66
2022/07/08 00:33:23;;;;;;;0.30;0.30;;;15.60;99.90;16.10;102923.00;;;;5037105;28;20213;-66
2022/07/08 00:36:12;;;;;;;0.30;0.30;;;15.40;99.90;15.60;102918.00;;;;5037173;28;20181;-66
2022/07/08 00:38:55;;;;;;;0.30;0.30;;;15.40;99.90;15.60;102907.00;;;;5021261;28;20651;-66
2022/07/08 00:41:39;;;;;;;0.30;0.30;;;15.20;99.90;15.80;102910.00;;;;5037169;28;20633;-64
2022/07/08 00:44:28;;;;;;;0.30;0.30;;;15.20;99.90;15.80;102918.00;;;;5036887;28;20185;-64
2022/07/08 00:47:03;;;;;;;0.30;0.30;;;15.20;99.90;15.90;102928.00;;;;5022315;28;20223;-64
2022/07/08 00:49:35;;;;;;;0.30;0.30;;;15.30;99.90;15.90;102928.00;;;;5037417;28;20543;-64
2022/07/08 00:52:19;;;;;;;0.30;0.30;;;15.30;99.90;15.60;102914.00;;;;5053571;28;20232;-64
2022/07/08 00:55:04;;;;;;;0.40;0.40;;;15.20;99.90;15.80;102914.00;;;;5035899;28;20238;-64
2022/07/08 00:58:11;;;;;;;0.40;0.40;;;15.10;99.90;15.80;102917.00;;;;5036846;28;20177;-64
2022/07/08 01:00:55;;;;;;;0.40;0.40;;;15.20;99.90;15.70;102923.00;;;;5052359;28;20231;-64
2022/07/08 01:03:40;;;;;;;0.40;0.40;;;15.10;99.90;15.90;102925.00;;;;5036517;28;20345;-64
2022/07/08 01:06:29;;;;;;;0.40;0.40;;;15.10;99.90;15.70;102936.00;;;;5053530;28;20218;-64
2022/07/08 01:09:16;;;;;;;0.40;0.40;;;15.10;99.90;15.90;102939.00;;;;5022442;28;20186;-64
2022/07/08 01:12:04;;;;;;;0.40;0.40;;;15.20;99.90;16.10;102943.00;;;;5036578;28;20296;-64
2022/07/08 01:14:50;;;;;;;0.40;0.40;;;15.30;99.90;15.60;102933.00;;;;5053278;28;20186;-64
2022/07/08 01:17:47;;;;;;;0.40;0.40;;;15.30;99.90;16.00;102941.00;;;;5021727;28;20627;-64
2022/07/08 01:20:52;;;;;;;0.40;0.40;;;15.30;99.90;15.60;102934.00;;;;5037219;28;20218;-64
2022/07/08 01:23:41;;;;;;;0.40;0.40;;;15.10;99.90;15.50;102930.00;;;;5023781;28;20188;-64
2022/07/08 01:26:30;;;;;;;0.40;0.40;;;14.90;99.90;15.30;102920.00;;;;5053111;28;20171;-64
2022/07/08 01:29:14;;;;;;;0.40;0.40;;;14.70;99.90;15.30;102938.00;;;;5036456;28;20229;-64
2022/07/08 01:32:04;;;;;;;0.40;0.40;;;14.80;99.90;15.20;102898.00;;;;5052550;28;20267;-64
2022/07/08 01:34:41;;;;;;;0.40;0.40;;;14.70;99.90;15.00;102904.00;;;;5022098;28;20176;-64
2022/07/08 01:37:30;;;;;;;0.30;0.30;;;14.50;99.90;15.40;102936.00;;;;5035782;28;20176;-64
2022/07/08 01:40:08;;;;;;;0.40;0.40;;;14.60;99.90;15.50;102925.00;;;;5022054;28;20221;-64
2022/07/08 01:42:58;;;;;;;0.40;0.40;;;14.80;99.90;15.40;102924.00;;;;5052473;28;20205;-64
2022/07/08 01:45:41;;;;;;;0.40;0.40;;;14.70;99.90;15.60;102937.00;;;;5021613;28;20180;-64
2022/07/08 01:48:18;;;;;;;0.40;0.40;;;14.80;99.90;15.30;102936.00;;;;5036353;28;20611;-64
2022/07/08 01:51:02;;;;;;;0.40;0.40;;;14.70;99.90;15.60;102923.00;;;;5036212;28;20630;-64
2022/07/08 01:53:48;;;;;;;0.40;0.40;;;14.80;99.90;15.30;102930.00;;;;5035778;28;20202;-64
2022/07/08 01:56:35;;;;;;;0.40;0.40;;;14.80;99.90;15.20;102919.00;;;;5021208;28;20181;-64
2022/07/08 01:59:19;;;;;;;0.40;0.40;;;14.70;99.90;15.20;102919.00;;;;5021137;28;20183;-64
2022/07/08 02:02:02;;;;;;;0.40;0.40;;;14.60;99.90;15.10;102913.00;;;;5052595;28;20190;-64
2022/07/08 02:04:47;;;;;;;0.40;0.40;;;14.50;99.90;15.30;102911.00;;;;5035547;28;20204;-64
2022/07/08 02:07:34;;;;;;;0.40;0.40;;;14.60;99.90;15.00;102905.00;;;;5035458;28;20200;-64
2022/07/08 02:10:18;;;;;;;0.40;0.40;;;14.50;99.90;15.20;102910.00;;;;5035663;28;20191;-64
2022/07/08 02:13:04;;;;;;;0.40;0.40;;;14.50;99.90;15.10;102910.00;;;;5035571;28;20207;-64
2022/07/08 02:15:53;;;;;;;0.40;0.40;;;14.50;99.90;15.20;102923.00;;;;5020839;28;20248;-64
2022/07/08 02:18:40;;;;;;;3.70;1.43;;;14.50;99.90;15.40;102922.00;;;;5021070;28;20280;-64
2022/07/08 02:21:28;;;;;;;0.40;0.40;;;14.60;99.90;15.60;102935.00;;;;5037477;28;20277;-64
2022/07/08 02:24:15;;;;;;;0.40;0.40;;;14.90;99.90;15.30;102915.00;;;;5035466;28;20219;-64
2022/07/08 02:26:58;;;;;;;0.50;0.50;;;14.90;99.90;15.70;102913.00;;;;5037072;28;20272;-64
2022/07/08 02:29:33;;;;;;;0.40;0.40;;;15.00;99.90;15.70;102888.00;;;;5035316;28;20196;-64
2022/07/08 02:32:17;;;;;;;0.30;0.30;;;15.20;99.90;15.40;102922.00;;;;5035390;28;20642;-64
2022/07/08 02:34:43;;;;;;;0.40;0.40;;;14.90;99.90;15.30;102912.00;;;;5035165;28;20219;-64
2022/07/08 02:37:30;;;;;;;0.40;0.40;;;14.80;99.90;15.30;102912.00;;;;5035617;28;20271;-64
2022/07/08 02:40:37;;;;;;;0.40;0.40;;;14.70;99.90;15.20;102911.00;;;;5020735;28;20294;-64
2022/07/08 02:44:14;;;;;;;0.40;0.40;;;14.60;99.90;15.10;102906.00;;;;5018786;28;20199;-64
2022/07/08 02:47:34;;;;;;;0.80;0.80;;;14.50;99.90;15.40;102918.00;;;;5032049;28;20229;-64
2022/07/08 02:51:12;;;;;;;0.40;0.40;;;14.50;99.90;15.40;102922.00;;;;5040075;28;20249;-64
2022/07/08 02:53:41;;;;;;;0.50;0.50;;;14.80;99.90;15.50;102917.00;;;;5049471;28;20191;-64
2022/07/08 02:56:47;;;;;;;0.40;0.40;;;14.90;99.90;15.30;102914.00;;;;5052351;28;20209;-64
2022/07/08 02:59:31;;;;;;;0.60;0.60;;;14.90;99.90;15.10;102911.00;;;;5022914;28;20202;-64
2022/07/08 03:02:23;;;;;;;0.40;0.40;;;14.70;99.90;15.10;102924.00;;;;5035082;28;20241;-64
2022/07/08 03:05:10;;;;;;;0.80;0.80;;;14.50;99.90;15.00;102904.00;;;;5036071;28;20220;-64
2022/07/08 03:08:11;;;;;;;0.73;0.73;;;14.50;99.90;15.10;102910.00;;;;5051741;28;20184;-64
2022/07/08 03:10:55;;;;;;;0.40;0.40;;;14.50;99.90;14.80;102913.00;;;;5053260;28;20171;-64
2022/07/08 03:13:41;;;;;;;0.40;0.40;;;14.40;99.90;14.60;102918.00;;;;5051819;28;20679;-64
2022/07/08 03:16:28;;;;;;;0.40;0.40;;;14.40;99.90;14.70;102926.00;;;;5052751;28;20507;-64
2022/07/08 03:19:33;;;;;;;0.40;0.40;;;14.20;99.90;15.20;102924.00;;;;5053309;28;20578;-64
2022/07/08 03:22:38;;;;;;;0.40;0.40;;;14.40;99.90;14.70;102911.00;;;;5039078;28;20646;-64
2022/07/08 03:25:30;;;;;;;0.50;0.50;;;14.40;99.90;15.10;102913.00;;;;5041481;28;20614;-64
2022/07/08 03:28:20;;;;;;;0.40;0.40;;;14.40;99.90;15.30;102917.00;;;;5055430;28;20275;-64
2022/07/08 03:31:05;;;;;;;0.50;0.50;;;14.60;99.90;15.10;102902.00;;;;5040103;28;20531;-64
2022/07/08 03:33:52;;;;;;;0.40;0.40;;;14.60;99.90;14.80;102914.00;;;;5038224;28;20219;-64
2022/07/08 03:36:38;;;;;;;0.40;0.40;;;14.50;99.90;15.30;102872.00;;;;5038386;28;20187;-64
2022/07/08 03:39:11;;;;;;;0.40;0.40;;;14.50;99.90;15.30;102916.00;;;;5038582;28;20189;-64
2022/07/08 03:42:00;;;;;;;0.40;0.40;;;14.70;99.90;14.60;102867.00;;;;5056378;28;20184;-64
2022/07/08 03:44:43;;;;;;;0.40;0.40;;;14.40;99.90;15.10;102903.00;;;;5054986;28;20179;-64
2022/07/08 03:47:34;;;;;;;0.40;0.40;;;14.40;99.90;14.80;102906.00;;;;5054789;28;20188;-64
2022/07/08 03:50:18;;;;;;;0.40;0.40;;;14.30;99.90;15.20;102888.00;;;;5040491;28;20173;-64
2022/07/08 03:53:09;;;;;;;0.40;0.40;;;14.50;99.90;15.10;102904.00;;;;5054902;28;20238;-64
2022/07/08 03:55:56;;;;;;;0.40;0.40;;;14.50;99.90;14.20;102908.00;;;;5055868;28;20165;-64
2022/07/08 03:58:40;;;;;;;0.40;0.40;;;14.00;99.90;14.30;102909.00;;;;5054566;28;20542;-64
2022/07/08 04:01:26;;;;;;;0.40;0.40;;;13.90;99.90;14.40;102921.00;;;;5055488;28;20186;-64
2022/07/08 04:04:12;;;;;;;0.50;0.50;;;13.80;99.90;14.20;102913.00;;;;5054892;28;20178;-64
2022/07/08 04:06:56;;;;;;;0.50;0.50;;;13.70;99.90;14.60;102885.00;;;;5038343;28;20184;-64
2022/07/08 04:09:39;;;;;;;0.50;0.50;;;13.80;99.90;14.60;102905.00;;;;5054718;28;20168;-64
2022/07/08 04:12:10;;;;;;;0.50;0.50;;;13.80;99.90;14.70;102927.00;;;;5054205;28;20226;-64
2022/07/08 04:14:53;;;;;;;0.50;0.50;;;13.90;99.90;14.80;102923.00;;;;5038015;28;20580;-64
2022/07/08 04:17:39;;;;;;;0.60;0.60;;;14.00;99.90;14.40;102907.00;;;;5054992;28;20188;-64
2022/07/08 04:20:43;;;;;;;0.50;0.50;;;14.00;99.90;14.10;102926.00;;;;5054819;28;20176;-64
2022/07/08 04:23:35;;;;;;;0.90;0.90;;;13.80;99.90;14.70;102947.00;;;;5054194;28;20180;-64
2022/07/08 04:26:24;;;;;;;1.00;1.00;;;13.90;99.90;15.00;102935.00;;;;5037768;28;20196;-64
2022/07/08 04:29:11;;;;;;;0.50;0.50;;;14.40;99.90;15.50;102937.00;;;;5055421;28;20188;-64
2022/07/08 04:31:54;;;;;;;0.40;0.40;;;14.70;99.90;15.70;102939.00;;;;5053645;28;20255;-64
2022/07/08 04:34:43;;;;;;;0.40;0.40;;;15.00;99.90;16.50;102915.00;;;;5054127;28;20212;-64
2022/07/08 04:37:26;;;;;;;1.73;1.20;;;15.60;99.90;16.80;102934.00;;;;5022749;28;20199;-64
2022/07/08 04:40:30;;;;;;;0.43;0.43;;;16.10;99.90;16.10;102934.00;;;;5037289;28;20188;-64
2022/07/08 04:43:14;;;;;;;0.30;0.30;;;16.20;99.90;16.60;102941.00;;;;5054235;28;20277;-64
2022/07/08 04:46:00;;;;;;;0.30;0.30;;;16.20;99.90;15.70;102929.00;;;;5054103;28;20223;-64
2022/07/08 04:48:39;;;;;;;0.20;0.20;;;16.00;99.90;15.50;102941.00;;;;5037097;28;20218;-64
2022/07/08 04:51:23;;;;;;;0.20;0.20;;;15.60;99.90;15.80;102934.00;;;;5055045;28;20214;-66
2022/07/08 04:54:26;;;;;;;0.20;0.20;;;15.80;99.90;17.00;102961.00;;;;5054951;28;20177;-66
2022/07/08 04:57:10;;;;;;;0.30;0.30;;;16.30;99.90;16.80;102951.00;;;;5036794;28;20188;-67
2022/07/08 04:59:53;;;;;;;0.20;0.20;;;16.60;99.90;17.10;102955.00;;;;5053419;28;20179;-67
2022/07/08 05:02:39;;;;;;;0.10;0.10;;;17.00;99.90;18.30;102949.00;;;;5036919;28;20551;-66
2022/07/08 05:05:26;;;;;;;0.10;0.10;;;17.30;99.90;19.80;102975.00;;;;5053517;28;20182;-67
2022/07/08 05:08:22;;;;;;;0.20;0.20;;;18.40;99.90;22.70;103045.00;;;;5053569;28;20217;-65
2022/07/08 05:11:14;;;;;;;0.10;0.10;;;20.40;99.90;20.90;103024.00;;;;5048834;28;20203;-64
2022/07/08 05:14:00;;;;;;;0.28;0.28;;;20.60;99.90;21.40;103058.00;;;;5054361;28;20174;-64
2022/07/08 05:17:04;;;;;;;1.38;0.90;;;20.60;99.90;23.40;103092.00;;;;5053275;28;20537;-64
2022/07/08 05:19:49;;;;;;;0.20;0.20;;;21.60;99.90;24.30;103109.00;;;;5040573;28;20190;-65
2022/07/08 05:22:33;;;;;;;0.10;0.10;;;22.60;99.90;22.60;103113.00;;;;5036731;28;20187;-65
2022/07/08 05:25:22;;;;;;;0.10;0.10;;;22.40;99.90;19.60;103065.00;;;;5054478;28;20175;-64
2022/07/08 05:28:23;;;;;;;0.15;0.15;;;20.30;99.90;18.90;103021.00;;;;5038479;28;20174;-67
2022/07/08 05:31:11;;;;;;;0.10;0.10;;;19.20;99.90;18.50;103000.00;;;;5053040;28;20166;-67
2022/07/08 05:33:57;;;;;;;0.10;0.10;;;18.40;99.90;19.10;103016.00;;;;5052902;28;20186;-67
2022/07/08 05:36:47;;;;;;;0.10;0.10;;;18.50;99.90;18.50;103027.00;;;;5052742;28;20206;-67
2022/07/08 05:39:31;;;;;;;2.72;1.13;;;18.60;99.90;18.40;103006.00;;;;5053019;28;20230;-67
2022/07/08 05:42:17;;;;;;;4.53;0.82;;;18.10;99.90;17.80;102962.00;;;;5053508;28;20214;-66
2022/07/08 05:44:48;;;;;;;2.47;0.90;;;17.90;99.90;18.50;102988.00;;;;5021115;28;20175;-67
2022/07/08 05:47:35;;;;;;;0.35;0.35;;;17.90;99.90;20.60;103045.00;;;;5035920;28;20182;-67
2022/07/08 05:50:41;;;;;;;0.75;0.75;;;19.30;99.90;23.40;103101.00;;;;5052880;28;20182;-65
2022/07/08 05:53:30;;;;;;;0.10;0.10;;;21.40;99.90;25.90;103132.00;;;;5024908;28;20208;-65
2022/07/08 05:56:26;;;;;;;0.10;0.10;;;23.80;99.90;26.30;103144.00;;;;5021826;28;20236;-65
2022/07/08 05:59:54;;;;;;;0.10;0.10;;;24.80;99.90;26.00;103151.00;;;;5052561;28;20185;-65
2022/07/08 06:02:40;;;;;;;2.17;1.50;;;25.70;99.90;25.60;103155.00;;;;5042529;28;20198;-67
2022/07/08 06:05:27;;;;;;;0.10;0.10;;;24.20;99.90;27.70;103155.00;;;;5052447;28;20215;-65
2022/07/08 06:08:16;;;;;;;0.10;0.10;;;25.70;99.90;29.20;103161.00;;;;5021067;28;20628;-65
2022/07/08 06:10:49;;;;;;;0.10;0.10;;;27.20;99.90;31.20;103142.00;;;;5053527;28;20182;-66
2022/07/08 06:13:53;;;;;;;0.10;0.10;;;28.70;99.90;32.40;103140.00;;;;5035451;28;20209;-66
2022/07/08 06:16:54;;;;;;;0.30;0.30;;;30.00;99.90;24.10;103172.00;;;;5040403;28;20593;-65
2022/07/08 06:19:48;;;;;;;0.10;0.10;;;26.40;99.90;24.90;103163.00;;;;5035374;28;20189;-65
2022/07/08 06:23:23;;;;;;;0.47;0.47;;;24.30;99.90;23.40;103145.00;;;;5021805;28;20223;-65
2022/07/08 06:26:07;;;;;;;0.47;0.47;;;22.80;99.90;23.90;103152.00;;;;5043157;28;20273;-65
2022/07/08 06:28:58;;;;;;;1.38;0.20;;;23.30;99.90;25.40;103167.00;;;;5035078;28;20644;-65
2022/07/08 06:31:45;;;;;;;0.10;0.10;;;23.90;99.90;27.10;103174.00;;;;5051771;28;20217;-65
2022/07/08 06:34:49;;;;;;;0.10;0.10;;;25.10;99.90;30.00;103145.00;;;;5052014;28;20185;-66
2022/07/08 06:37:40;;;;;;;0.10;0.10;;;27.40;99.90;31.50;103158.00;;;;5040011;28;20178;-66
2022/07/08 06:40:46;;;;;;;0.10;0.10;;;29.40;99.90;31.00;103161.00;;;;5052044;28;20182;-66
2022/07/08 06:43:33;;;;;;;0.10;0.10;;;29.80;99.90;32.70;103130.00;;;;5023351;28;20184;-66
2022/07/08 06:46:19;;;;;;;0.10;0.10;;;30.80;99.90;33.00;103142.00;;;;5035532;28;20209;-66
2022/07/08 06:49:03;;;;;;;0.85;0.85;;;31.40;97.60;30.90;103134.00;;;;5051761;28;20188;-66
2022/07/08 06:51:49;;;;;;;0.10;0.10;;;30.70;96.50;29.50;103177.00;;;;5051912;28;20206;-66
2022/07/08 06:54:36;;;;;;;0.35;0.20;;;29.60;96.90;30.60;103190.00;;;;5039480;28;20544;-66
2022/07/08 06:57:25;;;;;;;0.20;0.20;;;29.50;98.20;31.90;103190.00;;;;5041336;28;20533;-66
2022/07/08 07:00:09;;;;;;;0.22;0.22;;;30.30;97.60;31.20;103191.00;;;;5055617;28;20274;-66
2022/07/08 07:02:56;;;;;;;0.10;0.10;;;30.20;96.70;31.70;103187.00;;;;5038949;28;20228;-66
2022/07/08 07:05:41;;;;;;;0.10;0.10;;;30.30;97.10;32.60;103169.00;;;;5055905;28;20174;-66
2022/07/08 07:08:47;;;;;;;0.10;0.10;;;31.00;96.90;33.00;103188.00;;;;5055777;28;20186;-66
2022/07/08 07:11:33;;;;;;;0.10;0.10;;;31.40;96.40;31.00;103184.00;;;;5043029;28;20224;-66
2022/07/08 07:14:17;;;;;;;0.10;0.10;;;31.00;95.50;33.50;103162.00;;;;5038964;28;20236;-66
2022/07/08 07:17:00;;;;;;;0.30;0.30;;;31.90;95.40;33.70;103191.00;;;;5056177;28;20245;-66
2022/07/08 07:19:49;;;;;;;0.10;0.10;;;32.40;93.70;33.60;103182.00;;;;5056746;28;20469;-67
2022/07/08 07:22:35;;;;;;;0.40;0.10;;;32.30;94.20;34.00;103187.00;;;;5023215;28;20194;-67
2022/07/08 07:25:23;;;;;;;0.10;0.10;;;32.70;93.20;34.40;103187.00;;;;5055153;28;20186;-67
2022/07/08 07:28:09;;;;;;;0.75;0.75;;;33.20;92.70;33.30;103168.00;;;;5040568;28;20244;-67
2022/07/08 07:30:53;;;;;;;0.10;0.10;;;33.20;91.50;32.20;103190.00;;;;5055147;28;20224;-67
2022/07/08 07:33:42;;;;;;;0.00;0.00;;;31.80;92.10;31.80;103179.00;;;;5055073;28;20233;-67
2022/07/08 07:36:32;;;;;;;0.10;0.10;;;31.50;92.60;32.50;103197.00;;;;5040560;28;20217;-67
2022/07/08 07:39:19;;;;;;;0.10;0.10;;;31.80;92.60;33.50;103199.00;;;;5054789;28;20174;-67
2022/07/08 07:42:03;;;;;;;0.10;0.10;;;32.20;92.40;32.60;103204.00;;;;5039789;28;20189;-67
2022/07/08 07:44:46;;;;;;;0.00;0.00;;;32.10;91.40;33.90;103205.00;;;;5038512;28;20277;-67
2022/07/08 07:47:33;;;;;;;11.15;0.47;;;32.30;91.80;33.70;103207.00;;;;5038311;28;20240;-67
2022/07/08 07:50:12;;;;;;;1.48;0.85;;;32.60;91.20;32.70;103216.00;;;;5038400;28;20632;-67
2022/07/08 07:52:55;;;;;;;0.10;0.10;;;32.40;90.80;32.70;103219.00;;;;5038222;28;20323;-67
2022/07/08 07:55:57;;;;;;;0.15;0.15;;;31.80;91.60;32.50;103222.00;;;;5055912;28;20213;-67
2022/07/08 07:58:48;;;;;;;1.75;0.57;;;32.00;91.50;30.30;103230.00;;;;5055348;28;20186;-67
2022/07/08 08:01:49;;;;;;;0.40;0.40;;;29.90;92.30;31.20;103210.00;;;;5054572;28;20171;-66
2022/07/08 08:04:35;;;;;;;4.35;1.10;;;30.00;92.80;30.40;103222.00;;;;5054760;28;20458;-67
2022/07/08 08:07:19;;;;;;;0.10;0.10;;;30.30;92.40;28.90;103243.00;;;;5039673;28;20170;-66
2022/07/08 08:10:16;;;;;;;0.10;0.10;;;29.10;92.60;32.20;103218.00;;;;5038039;28;20186;-67
2022/07/08 08:13:07;;;;;;;0.20;0.20;;;30.30;93.20;31.20;103220.00;;;;5050077;28;20236;-67
2022/07/08 08:15:55;;;;;;;0.10;0.10;;;31.20;91.90;32.20;103224.00;;;;5037815;28;20546;-67
2022/07/08 08:18:46;;;;;;;0.10;0.10;;;31.10;91.20;33.60;103220.00;;;;5039262;28;20174;-67
2022/07/08 08:21:38;;;;;;;0.10;0.10;;;32.00;90.40;34.10;103208.00;;;;5054314;28;20209;-67
2022/07/08 08:24:25;;;;;;;0.00;0.00;;;32.70;90.10;30.80;103225.00;;;;5054455;28;20189;-67
2022/07/08 08:27:09;;;;;;;0.00;0.00;;;31.50;87.70;32.60;103219.00;;;;5055588;28;20216;-67
2022/07/08 08:29:52;;;;;;;0.10;0.10;;;31.50;90.00;32.50;103212.00;;;;5054427;28;20641;-67
2022/07/08 08:32:39;;;;;;;0.43;0.43;;;31.40;88.80;32.30;103218.00;;;;5037207;28;20531;-67
2022/07/08 08:35:28;;;;;;;0.10;0.10;;;31.70;86.40;31.90;103233.00;;;;5037416;28;20243;-67
2022/07/08 08:38:11;;;;;;;8.57;1.10;;;31.20;87.50;31.80;103233.00;;;;5053642;28;20193;-67
2022/07/08 08:41:15;;;;;;;0.10;0.10;;;31.00;89.80;30.20;103231.00;;;;5054145;28;20182;-67
2022/07/08 08:43:48;;;;;;;0.20;0.20;;;31.00;88.50;29.90;103224.00;;;;5053725;28;20236;-66
2022/07/08 08:46:32;;;;;;;0.10;0.10;;;29.70;90.00;31.00;103216.00;;;;5053802;28;20228;-67
2022/07/08 08:49:18;;;;;;;3.65;3.53;;;30.00;90.30;30.50;103235.00;;;;5055090;28;20186;-67
2022/07/08 08:52:13;;;;;;;0.10;0.10;;;29.60;90.90;32.00;103227.00;;;;5036887;28;20540;-67
2022/07/08 08:55:26;;;;;;;0.00;0.00;;;30.70;90.40;30.20;103214.00;;;;5053901;28;20190;-67
2022/07/08 08:58:31;;;;;;;0.05;0.05;;;30.90;88.20;29.80;103227.00;;;;5054073;28;20606;-67
2022/07/08 09:01:35;;;;;;;0.10;0.10;;;28.70;91.60;30.20;103228.00;;;;5053602;28;20210;-67
2022/07/08 09:04:37;;;;;;;0.20;0.20;;;29.20;91.80;32.10;103215.00;;;;5053163;28;20531;-67
2022/07/08 09:07:28;;;;;;;0.10;0.10;;;30.60;90.00;33.80;103199.00;;;;5036534;28;20188;-67
2022/07/08 09:10:34;;;;;;;0.10;0.10;;;32.00;88.10;32.10;103202.00;;;;5053248;28;20182;-67
2022/07/08 09:13:26;;;;;;;0.22;0.20;;;31.90;84.40;33.10;103182.00;;;;5052957;28;20198;-67
2022/07/08 09:16:29;;;;;;;0.10;0.10;;;31.90;84.00;33.20;103203.00;;;;5053891;28;20181;-67
2022/07/08 09:19:16;;;;;;;3.40;3.17;;;32.60;82.40;33.20;103204.00;;;;5054654;28;20178;-67
2022/07/08 09:22:14;;;;;;;0.10;0.10;;;32.70;81.50;31.80;103191.00;;;;5021885;28;20202;-67
2022/07/08 09:37:10;;;;;;;0.10;0.10;;;29.60;89.20;33.30;103216.00;;;;5041509;28;20263;-67
2022/07/08 09:40:01;;;;;;;0.68;0.68;;;31.50;89.10;32.50;103219.00;;;;5036270;28;20181;-66
2022/07/08 09:42:49;;;;;;;0.30;0.30;;;31.60;88.30;32.80;103193.00;;;;5037290;28;20217;-67
2022/07/08 09:45:33;;;;;;;0.10;0.10;;;31.80;87.50;32.80;103222.00;;;;5020971;28;20192;-67
2022/07/08 09:48:29;;;;;;;0.10;0.10;;;32.10;87.50;31.70;103228.00;;;;5035955;28;20178;-67
2022/07/08 09:51:17;;;;;;;0.10;0.10;;;32.00;85.50;29.10;103224.00;;;;5052504;28;20182;-66
2022/07/08 09:54:10;;;;;;;0.10;0.10;;;29.60;89.70;29.40;103234.00;;;;5035741;28;20280;-66
2022/07/08 09:56:57;;;;;;;2.90;1.00;;;28.70;91.20;26.50;103236.00;;;;5038459;28;20186;-67
2022/07/08 09:59:46;;;;;;;0.52;0.32;;;27.40;91.50;24.80;103222.00;;;;5036033;28;20190;-67
2022/07/08 10:02:31;;;;;;;0.10;0.10;;;25.40;93.80;27.70;103232.00;;;;5021276;28;20672;-69
2022/07/08 10:05:17;;;;;;;0.10;0.10;;;26.20;95.00;27.80;103219.00;;;;5035580;28;20568;-67
2022/07/08 10:08:13;;;;;;;0.10;0.10;;;27.40;93.00;27.70;103222.00;;;;5035596;28;20232;-67
2022/07/08 10:11:05;;;;;;;0.35;0.35;;;26.70;94.70;26.80;103193.00;;;;5022069;28;20529;-68
2022/07/08 10:14:10;;;;;;;0.10;0.10;;;26.80;94.10;26.30;103218.00;;;;5052434;28;20247;-66
2022/07/08 10:17:00;;;;;;;1.00;0.47;;;27.60;93.30;28.90;103215.00;;;;5035744;28;20181;-66
2022/07/08 10:19:46;;;;;;;0.10;0.10;;;27.70;93.90;30.80;103209.00;;;;5050776;28;20189;-66
2022/07/08 10:44:02;;;;;;;0.08;0.08;;;30.00;90.40;31.20;103182.00;;;;5070556;27;1850397;-68
2022/07/08 10:46:52;;;;;;;0.63;0.63;;;31.40;87.00;28.70;103180.00;;;;5086953;28;20291;-68
2022/07/08 10:49:47;;;;;;;0.10;0.10;;;28.70;90.70;29.70;103214.00;;;;5109748;28;20215;-68
2022/07/08 10:52:38;;;;;;;0.32;0.30;;;28.70;90.90;30.20;103205.00;;;;5109717;28;20559;-66
2022/07/08 10:55:20;;;;;;;0.10;0.10;;;29.40;90.10;28.90;103204.00;;;;5109896;28;20165;-66
2022/07/08 10:58:51;;;;;;;0.65;0.65;;;28.70;90.80;26.80;103206.00;;;;5092752;28;20599;-66
2022/07/08 11:01:40;;;;;;;0.10;0.10;;;28.30;90.60;28.40;103218.00;;;;5108920;28;20184;-67
2022/07/08 11:04:39;;;;;;;0.10;0.10;;;27.60;93.00;26.80;103208.00;;;;5109601;28;20176;-67
2022/07/08 11:07:20;;;;;;;0.08;0.08;;;27.90;91.70;29.90;103208.00;;;;5109272;28;20215;-67
2022/07/08 11:09:51;;;;;;;0.10;0.10;;;28.60;92.70;32.20;103193.00;;;;5110404;28;20180;-67
2022/07/08 11:12:36;;;;;;;0.10;0.10;;;30.70;91.70;33.50;103181.00;;;;5109230;28;20197;-67
2022/07/08 11:15:27;;;;;;;0.20;0.20;;;31.90;90.70;35.10;103172.00;;;;5109001;28;20180;-67
2022/07/08 11:18:11;;;;;;;0.10;0.10;;;33.80;87.70;35.40;103169.00;;;;5109224;28;20177;-67
2022/07/08 11:21:01;;;;;;;0.10;0.10;;;34.50;85.50;34.90;103164.00;;;;5109278;28;20180;-67
2022/07/08 11:23:47;;;;;;;1.08;0.20;;;34.60;82.20;32.10;103184.00;;;;5109169;28;20184;-66
2022/07/08 11:26:31;;;;;;;0.10;0.10;;;32.30;84.90;29.60;103193.00;;;;5108758;28;20177;-66
2022/07/08 11:29:25;;;;;;;0.20;0.20;;;31.20;84.90;30.60;103186.00;;;;5109060;28;20187;-66
2022/07/08 11:32:27;;;;;;;0.10;0.10;;;30.70;87.30;32.40;103187.00;;;;5108558;28;20269;-66
2022/07/08 11:35:19;;;;;;;4.25;1.23;;;31.30;88.50;31.50;103178.00;;;;5108566;28;20188;-66
2022/07/08 11:38:37;;;;;;;3.28;0.25;;;31.90;85.10;29.30;103196.00;;;;5109173;28;20200;-68
2022/07/08 11:41:20;;;;;;;0.10;0.10;;;29.70;88.60;28.00;103196.00;;;;5091866;28;20224;-67
2022/07/08 11:44:11;;;;;;;0.10;0.10;;;28.30;90.50;28.40;103212.00;;;;5100057;28;20238;-66
2022/07/08 11:46:56;;;;;;;0.10;0.10;;;27.50;92.40;30.10;103199.00;;;;5095380;28;20177;-66
2022/07/08 11:49:44;;;;;;;0.10;0.10;;;29.20;91.30;30.70;103189.00;;;;5078401;28;20203;-67
2022/07/08 11:52:31;;;;;;;0.20;0.20;;;30.20;90.80;29.90;103190.00;;;;5094762;28;20220;-67
2022/07/08 11:55:20;;;;;;;0.10;0.10;;;29.80;90.50;31.00;103173.00;;;;5095242;28;20181;-67
2022/07/08 11:58:27;;;;;;;0.05;0.05;;;29.90;90.80;31.20;103184.00;;;;5062926;28;20177;-67
2022/07/08 12:05:10;;;;;;;0.10;0.10;;;30.40;89.80;30.30;103184.00;;;;5087193;28;20187;-67
2022/07/08 12:08:09;;;;;;;0.93;0.93;;;29.70;90.40;30.20;103176.00;;;;5094946;28;20287;-67
2022/07/08 12:11:16;;;;;;;0.10;0.10;;;29.10;91.20;29.70;103192.00;;;;5094004;28;20641;-67
2022/07/08 12:14:07;;;;;;;0.10;0.10;;;29.00;91.40;28.60;103204.00;;;;5081973;28;20632;-67
2022/07/08 12:16:55;;;;;;;1.00;0.55;;;28.40;91.90;30.00;103169.00;;;;5094261;28;20173;-67
2022/07/08 12:19:39;;;;;;;0.10;0.10;;;28.70;92.00;28.40;103195.00;;;;5094699;28;20565;-67
2022/07/08 12:23:26;;;;;;;0.10;0.10;;;28.30;91.70;28.40;103192.00;;;;5094567;28;20169;-67
2022/07/08 12:26:10;;;;;;;0.10;0.10;;;27.90;92.20;28.50;103190.00;;;;5093090;28;20665;-67
2022/07/08 12:29:12;;;;;;;0.10;0.10;;;27.90;92.60;28.40;103191.00;;;;5094007;28;20177;-67
2022/07/08 12:31:58;;;;;;;0.10;0.10;;;27.60;93.50;28.90;103191.00;;;;5080611;28;20196;-67
2022/07/08 12:34:51;;;;;;;0.73;0.73;;;27.90;93.00;29.50;103177.00;;;;5094194;28;20180;-67
2022/07/08 12:37:23;;;;;;;0.10;0.10;;;28.10;92.90;28.80;103184.00;;;;5093920;28;20183;-67
2022/07/08 12:40:16;;;;;;;0.10;0.10;;;28.00;92.20;29.60;103181.00;;;;5094068;28;20181;-67
2022/07/08 12:43:13;;;;;;;0.10;0.10;;;28.20;92.80;29.60;103174.00;;;;5079360;28;20192;-67
2022/07/08 12:46:19;;;;;;;0.10;0.10;;;28.50;92.30;27.20;103188.00;;;;5080122;28;20184;-67
2022/07/08 12:49:06;;;;;;;0.10;0.10;;;27.60;93.10;27.80;103189.00;;;;5082000;28;20573;-67
2022/07/08 12:51:50;;;;;;;0.43;0.40;;;26.90;94.20;27.90;103192.00;;;;5093569;28;20196;-67
2022/07/08 12:54:35;;;;;;;0.30;0.30;;;26.80;94.40;27.60;103160.00;;;;5093332;28;20203;-67
2022/07/08 12:57:25;;;;;;;0.10;0.10;;;26.90;94.40;28.30;103186.00;;;;5093313;28;20246;-67
2022/07/08 13:00:13;;;;;;;0.10;0.10;;;27.10;94.50;28.00;103154.00;;;;5078841;28;20575;-67
2022/07/08 13:03:19;;;;;;;0.20;0.20;;;27.00;94.00;26.50;103175.00;;;;5078250;28;20176;-67
2022/07/08 13:06:22;;;;;;;0.20;0.20;;;25.90;95.30;27.30;103178.00;;;;5064622;28;20185;-67